sensor_id;sensor_type;location;lat;lon;timestamp;P1;durP1;ratioP1;P2;durP2;ratioP2
36715;SDS011;22699;51.034;3.730;2022-12-16T00:01:01;46.10;;;30.90;;
36715;SDS011;22699;51.034;3.730;2022-12-16T00:03:49;46.60;;;31.20;;
36715;SDS011;22699;51.034;3.730;2022-12-16T00:06:16;48.47;;;31.55;;
36715;SDS011;22699;51.034;3.730;2022-12-16T00:08:42;47.55;;;31.45;;
36715;SDS011;22699;51.034;3.730;2022-12-16T00:11:07;54.45;;;33.40;;
36715;SDS011;22699;51.034;3.730;2022-12-16T00:13:34;52.58;;;31.70;;
36715;SDS011;22699;51.034;3.730;2022-12-16T00:16:12;58.05;;;31.55;;
36715;SDS011;22699;51.034;3.730;2022-12-16T00:18:39;49.08;;;31.75;;
36715;SDS011;22699;51.034;3.730;2022-12-16T00:21:06;49.40;;;31.77;;
36715;SDS011;22699;51.034;3.730;2022-12-16T00:23:32;44.78;;;31.27;;
36715;SDS011;22699;51.034;3.730;2022-12-16T00:25:59;48.53;;;32.30;;
36715;SDS011;22699;51.034;3.730;2022-12-16T00:28:25;47.85;;;31.30;;
36715;SDS011;22699;51.034;3.730;2022-12-16T00:30:53;55.85;;;34.15;;
36715;SDS011;22699;51.034;3.730;2022-12-16T00:33:20;52.05;;;34.25;;
36715;SDS011;22699;51.034;3.730;2022-12-16T00:35:47;47.33;;;32.47;;
36715;SDS011;22699;51.034;3.730;2022-12-16T00:38:14;47.75;;;32.35;;
36715;SDS011;22699;51.034;3.730;2022-12-16T00:40:40;52.22;;;33.83;;
36715;SDS011;22699;51.034;3.730;2022-12-16T00:43:07;51.30;;;33.65;;
36715;SDS011;22699;51.034;3.730;2022-12-16T00:45:33;54.20;;;35.03;;
36715;SDS011;22699;51.034;3.730;2022-12-16T00:47:59;53.22;;;35.65;;
36715;SDS011;22699;51.034;3.730;2022-12-16T00:50:24;43.75;;;31.98;;
36715;SDS011;22699;51.034;3.730;2022-12-16T00:52:50;50.88;;;32.65;;
36715;SDS011;22699;51.034;3.730;2022-12-16T00:55:16;44.63;;;30.02;;
36715;SDS011;22699;51.034;3.730;2022-12-16T00:57:43;44.55;;;29.13;;
36715;SDS011;22699;51.034;3.730;2022-12-16T01:00:11;41.15;;;25.88;;
36715;SDS011;22699;51.034;3.730;2022-12-16T01:02:38;43.90;;;26.17;;
36715;SDS011;22699;51.034;3.730;2022-12-16T01:05:04;36.47;;;24.48;;
36715;SDS011;22699;51.034;3.730;2022-12-16T01:07:31;39.42;;;25.02;;
36715;SDS011;22699;51.034;3.730;2022-12-16T01:09:59;41.65;;;26.17;;
36715;SDS011;22699;51.034;3.730;2022-12-16T01:12:25;35.25;;;21.52;;
36715;SDS011;22699;51.034;3.730;2022-12-16T01:14:51;36.70;;;21.90;;
36715;SDS011;22699;51.034;3.730;2022-12-16T01:17:16;35.17;;;20.70;;
36715;SDS011;22699;51.034;3.730;2022-12-16T01:19:42;29.48;;;17.73;;
36715;SDS011;22699;51.034;3.730;2022-12-16T01:22:07;25.55;;;16.77;;
36715;SDS011;22699;51.034;3.730;2022-12-16T01:24:33;30.33;;;16.48;;
36715;SDS011;22699;51.034;3.730;2022-12-16T01:26:59;23.55;;;15.38;;
36715;SDS011;22699;51.034;3.730;2022-12-16T01:29:25;25.92;;;13.77;;
36715;SDS011;22699;51.034;3.730;2022-12-16T01:31:51;20.40;;;14.15;;
36715;SDS011;22699;51.034;3.730;2022-12-16T01:34:16;26.92;;;14.05;;
36715;SDS011;22699;51.034;3.730;2022-12-16T01:36:42;24.13;;;15.25;;
36715;SDS011;22699;51.034;3.730;2022-12-16T01:39:08;23.27;;;13.73;;
36715;SDS011;22699;51.034;3.730;2022-12-16T01:41:35;21.35;;;12.60;;
36715;SDS011;22699;51.034;3.730;2022-12-16T01:44:14;26.08;;;12.20;;
36715;SDS011;22699;51.034;3.730;2022-12-16T01:46:42;25.20;;;13.15;;
36715;SDS011;22699;51.034;3.730;2022-12-16T01:49:26;21.17;;;11.90;;
36715;SDS011;22699;51.034;3.730;2022-12-16T01:52:01;22.67;;;12.13;;
36715;SDS011;22699;51.034;3.730;2022-12-16T01:54:34;22.20;;;11.98;;
36715;SDS011;22699;51.034;3.730;2022-12-16T01:57:05;20.35;;;11.85;;
36715;SDS011;22699;51.034;3.730;2022-12-16T01:59:36;19.75;;;12.30;;
36715;SDS011;22699;51.034;3.730;2022-12-16T02:02:05;23.33;;;12.73;;
36715;SDS011;22699;51.034;3.730;2022-12-16T02:04:31;20.98;;;11.70;;
36715;SDS011;22699;51.034;3.730;2022-12-16T02:06:57;26.38;;;12.57;;
36715;SDS011;22699;51.034;3.730;2022-12-16T02:09:24;21.10;;;11.35;;
36715;SDS011;22699;51.034;3.730;2022-12-16T02:14:21;19.55;;;11.13;;
36715;SDS011;22699;51.034;3.730;2022-12-16T02:17:11;18.13;;;11.73;;
36715;SDS011;22699;51.034;3.730;2022-12-16T02:20:21;25.00;;;11.77;;
36715;SDS011;22699;51.034;3.730;2022-12-16T02:23:22;18.55;;;9.98;;
36715;SDS011;22699;51.034;3.730;2022-12-16T02:28:40;18.42;;;10.30;;
36715;SDS011;22699;51.034;3.730;2022-12-16T02:34:07;19.67;;;8.95;;
36715;SDS011;22699;51.034;3.730;2022-12-16T02:39:20;18.60;;;8.75;;
36715;SDS011;22699;51.034;3.730;2022-12-16T02:47:13;15.38;;;9.23;;
36715;SDS011;22699;51.034;3.730;2022-12-16T02:52:09;16.40;;;9.02;;
36715;SDS011;22699;51.034;3.730;2022-12-16T02:54:34;19.85;;;8.55;;
36715;SDS011;22699;51.034;3.730;2022-12-16T03:02:19;14.05;;;8.30;;
36715;SDS011;22699;51.034;3.730;2022-12-16T03:04:53;16.30;;;9.00;;
36715;SDS011;22699;51.034;3.730;2022-12-16T03:07:22;13.98;;;8.93;;
36715;SDS011;22699;51.034;3.730;2022-12-16T03:09:51;19.42;;;8.50;;
36715;SDS011;22699;51.034;3.730;2022-12-16T03:12:18;20.27;;;8.27;;
36715;SDS011;22699;51.034;3.730;2022-12-16T03:14:49;16.45;;;8.25;;
36715;SDS011;22699;51.034;3.730;2022-12-16T03:17:17;11.55;;;5.88;;
36715;SDS011;22699;51.034;3.730;2022-12-16T03:19:53;11.88;;;6.10;;
36715;SDS011;22699;51.034;3.730;2022-12-16T03:22:32;10.32;;;5.57;;
36715;SDS011;22699;51.034;3.730;2022-12-16T03:25:02;11.10;;;4.90;;
36715;SDS011;22699;51.034;3.730;2022-12-16T03:27:40;8.82;;;4.57;;
36715;SDS011;22699;51.034;3.730;2022-12-16T03:30:22;6.55;;;4.13;;
36715;SDS011;22699;51.034;3.730;2022-12-16T03:33:02;7.97;;;3.80;;
36715;SDS011;22699;51.034;3.730;2022-12-16T03:35:50;10.55;;;4.32;;
36715;SDS011;22699;51.034;3.730;2022-12-16T03:38:23;9.82;;;3.90;;
36715;SDS011;22699;51.034;3.730;2022-12-16T03:40:51;9.65;;;3.85;;
36715;SDS011;22699;51.034;3.730;2022-12-16T03:43:18;10.93;;;3.78;;
36715;SDS011;22699;51.034;3.730;2022-12-16T03:45:46;15.32;;;4.78;;
36715;SDS011;22699;51.034;3.730;2022-12-16T03:48:21;5.93;;;3.63;;
36715;SDS011;22699;51.034;3.730;2022-12-16T03:50:49;8.20;;;3.72;;
36715;SDS011;22699;51.034;3.730;2022-12-16T03:53:15;9.85;;;3.80;;
36715;SDS011;22699;51.034;3.730;2022-12-16T03:55:41;6.40;;;3.30;;
36715;SDS011;22699;51.034;3.730;2022-12-16T03:58:07;12.02;;;4.32;;
36715;SDS011;22699;51.034;3.730;2022-12-16T04:00:32;8.48;;;3.88;;
36715;SDS011;22699;51.034;3.730;2022-12-16T04:02:59;9.63;;;3.83;;
36715;SDS011;22699;51.034;3.730;2022-12-16T04:05:25;9.38;;;3.65;;
36715;SDS011;22699;51.034;3.730;2022-12-16T04:07:52;7.75;;;4.03;;
36715;SDS011;22699;51.034;3.730;2022-12-16T04:10:18;9.77;;;4.43;;
36715;SDS011;22699;51.034;3.730;2022-12-16T04:13:03;7.53;;;4.10;;
36715;SDS011;22699;51.034;3.730;2022-12-16T04:15:47;12.25;;;4.60;;
36715;SDS011;22699;51.034;3.730;2022-12-16T04:18:32;9.25;;;4.68;;
36715;SDS011;22699;51.034;3.730;2022-12-16T04:21:16;7.47;;;4.18;;
36715;SDS011;22699;51.034;3.730;2022-12-16T04:24:00;6.18;;;4.43;;
36715;SDS011;22699;51.034;3.730;2022-12-16T04:26:45;6.30;;;4.43;;
36715;SDS011;22699;51.034;3.730;2022-12-16T04:29:30;6.82;;;4.35;;
36715;SDS011;22699;51.034;3.730;2022-12-16T04:31:57;6.30;;;4.45;;
36715;SDS011;22699;51.034;3.730;2022-12-16T04:34:25;6.55;;;4.03;;
36715;SDS011;22699;51.034;3.730;2022-12-16T04:36:54;7.82;;;4.45;;
36715;SDS011;22699;51.034;3.730;2022-12-16T04:39:41;8.43;;;4.22;;
36715;SDS011;22699;51.034;3.730;2022-12-16T04:42:25;14.63;;;5.80;;
36715;SDS011;22699;51.034;3.730;2022-12-16T04:45:09;9.38;;;6.90;;
36715;SDS011;22699;51.034;3.730;2022-12-16T04:47:54;7.82;;;4.15;;
36715;SDS011;22699;51.034;3.730;2022-12-16T04:50:38;7.40;;;4.68;;
36715;SDS011;22699;51.034;3.730;2022-12-16T04:53:24;10.52;;;4.97;;
36715;SDS011;22699;51.034;3.730;2022-12-16T04:56:08;14.95;;;6.57;;
36715;SDS011;22699;51.034;3.730;2022-12-16T04:58:53;7.00;;;4.85;;
36715;SDS011;22699;51.034;3.730;2022-12-16T05:01:38;8.40;;;4.78;;
36715;SDS011;22699;51.034;3.730;2022-12-16T05:04:22;8.98;;;4.90;;
36715;SDS011;22699;51.034;3.730;2022-12-16T05:07:07;7.38;;;5.22;;
36715;SDS011;22699;51.034;3.730;2022-12-16T05:09:51;9.43;;;4.97;;
36715;SDS011;22699;51.034;3.730;2022-12-16T05:12:35;6.95;;;4.78;;
36715;SDS011;22699;51.034;3.730;2022-12-16T05:15:36;8.60;;;4.65;;
36715;SDS011;22699;51.034;3.730;2022-12-16T05:18:31;6.75;;;4.93;;
36715;SDS011;22699;51.034;3.730;2022-12-16T05:21:15;11.57;;;5.13;;
36715;SDS011;22699;51.034;3.730;2022-12-16T05:23:59;7.95;;;4.57;;
36715;SDS011;22699;51.034;3.730;2022-12-16T05:26:43;10.68;;;5.05;;
36715;SDS011;22699;51.034;3.730;2022-12-16T05:29:28;10.57;;;4.80;;
36715;SDS011;22699;51.034;3.730;2022-12-16T05:32:13;6.72;;;4.43;;
36715;SDS011;22699;51.034;3.730;2022-12-16T05:34:58;9.75;;;5.10;;
36715;SDS011;22699;51.034;3.730;2022-12-16T05:37:42;16.48;;;5.25;;
36715;SDS011;22699;51.034;3.730;2022-12-16T05:40:26;8.27;;;4.65;;
36715;SDS011;22699;51.034;3.730;2022-12-16T05:43:10;10.18;;;4.97;;
36715;SDS011;22699;51.034;3.730;2022-12-16T05:45:54;6.20;;;4.57;;
36715;SDS011;22699;51.034;3.730;2022-12-16T05:48:38;5.80;;;4.60;;
36715;SDS011;22699;51.034;3.730;2022-12-16T05:51:23;11.02;;;4.20;;
36715;SDS011;22699;51.034;3.730;2022-12-16T05:54:07;8.98;;;5.28;;
36715;SDS011;22699;51.034;3.730;2022-12-16T05:56:52;6.35;;;4.50;;
36715;SDS011;22699;51.034;3.730;2022-12-16T05:59:36;8.43;;;4.78;;
36715;SDS011;22699;51.034;3.730;2022-12-16T06:02:20;9.75;;;5.22;;
36715;SDS011;22699;51.034;3.730;2022-12-16T06:05:04;13.27;;;6.72;;
36715;SDS011;22699;51.034;3.730;2022-12-16T06:07:49;11.18;;;4.70;;
36715;SDS011;22699;51.034;3.730;2022-12-16T06:10:34;8.80;;;4.63;;
36715;SDS011;22699;51.034;3.730;2022-12-16T06:13:18;12.10;;;5.07;;
36715;SDS011;22699;51.034;3.730;2022-12-16T06:16:02;9.02;;;4.75;;
36715;SDS011;22699;51.034;3.730;2022-12-16T06:18:55;7.88;;;4.35;;
36715;SDS011;22699;51.034;3.730;2022-12-16T06:21:40;10.40;;;4.63;;
36715;SDS011;22699;51.034;3.730;2022-12-16T06:24:24;8.40;;;4.75;;
36715;SDS011;22699;51.034;3.730;2022-12-16T06:27:08;10.30;;;4.97;;
36715;SDS011;22699;51.034;3.730;2022-12-16T06:29:52;10.48;;;5.18;;
36715;SDS011;22699;51.034;3.730;2022-12-16T06:32:36;9.43;;;4.68;;
36715;SDS011;22699;51.034;3.730;2022-12-16T06:35:20;7.65;;;4.80;;
36715;SDS011;22699;51.034;3.730;2022-12-16T06:38:05;11.25;;;6.60;;
36715;SDS011;22699;51.034;3.730;2022-12-16T06:40:49;13.55;;;7.18;;
36715;SDS011;22699;51.034;3.730;2022-12-16T06:43:33;13.30;;;5.72;;
36715;SDS011;22699;51.034;3.730;2022-12-16T06:46:17;13.85;;;6.28;;
36715;SDS011;22699;51.034;3.730;2022-12-16T06:49:09;11.25;;;5.82;;
36715;SDS011;22699;51.034;3.730;2022-12-16T06:51:54;12.23;;;5.82;;
36715;SDS011;22699;51.034;3.730;2022-12-16T06:54:37;11.20;;;5.65;;
36715;SDS011;22699;51.034;3.730;2022-12-16T06:57:22;10.60;;;5.70;;
36715;SDS011;22699;51.034;3.730;2022-12-16T07:00:06;14.32;;;6.25;;
36715;SDS011;22699;51.034;3.730;2022-12-16T07:02:51;11.88;;;5.80;;
36715;SDS011;22699;51.034;3.730;2022-12-16T07:05:35;12.65;;;5.13;;
36715;SDS011;22699;51.034;3.730;2022-12-16T07:08:19;11.38;;;5.60;;
36715;SDS011;22699;51.034;3.730;2022-12-16T07:11:03;18.08;;;6.90;;
36715;SDS011;22699;51.034;3.730;2022-12-16T07:13:47;10.52;;;5.60;;
36715;SDS011;22699;51.034;3.730;2022-12-16T07:16:31;10.18;;;5.97;;
36715;SDS011;22699;51.034;3.730;2022-12-16T07:19:15;15.63;;;7.07;;
36715;SDS011;22699;51.034;3.730;2022-12-16T07:22:17;10.32;;;6.32;;
36715;SDS011;22699;51.034;3.730;2022-12-16T07:25:01;10.20;;;5.85;;
36715;SDS011;22699;51.034;3.730;2022-12-16T07:27:53;13.07;;;5.75;;
36715;SDS011;22699;51.034;3.730;2022-12-16T07:30:38;8.65;;;5.80;;
36715;SDS011;22699;51.034;3.730;2022-12-16T07:33:24;13.05;;;5.97;;
36715;SDS011;22699;51.034;3.730;2022-12-16T07:36:08;10.27;;;6.30;;
36715;SDS011;22699;51.034;3.730;2022-12-16T07:38:53;12.90;;;6.03;;
36715;SDS011;22699;51.034;3.730;2022-12-16T07:41:37;11.45;;;6.15;;
36715;SDS011;22699;51.034;3.730;2022-12-16T07:44:21;10.27;;;6.50;;
36715;SDS011;22699;51.034;3.730;2022-12-16T07:50:02;12.27;;;7.32;;
36715;SDS011;22699;51.034;3.730;2022-12-16T07:55:42;14.43;;;7.82;;
36715;SDS011;22699;51.034;3.730;2022-12-16T07:58:27;17.10;;;8.05;;
36715;SDS011;22699;51.034;3.730;2022-12-16T08:01:14;16.67;;;8.27;;
36715;SDS011;22699;51.034;3.730;2022-12-16T08:04:00;17.20;;;8.02;;
36715;SDS011;22699;51.034;3.730;2022-12-16T08:06:44;17.00;;;8.15;;
36715;SDS011;22699;51.034;3.730;2022-12-16T08:09:30;13.93;;;7.55;;
36715;SDS011;22699;51.034;3.730;2022-12-16T08:12:15;15.60;;;8.00;;
36715;SDS011;22699;51.034;3.730;2022-12-16T08:14:59;12.57;;;8.38;;
36715;SDS011;22699;51.034;3.730;2022-12-16T08:17:50;14.05;;;7.53;;
36715;SDS011;22699;51.034;3.730;2022-12-16T08:20:37;13.25;;;6.75;;
36715;SDS011;22699;51.034;3.730;2022-12-16T08:23:24;9.82;;;6.82;;
36715;SDS011;22699;51.034;3.730;2022-12-16T08:26:08;13.55;;;6.13;;
36715;SDS011;22699;51.034;3.730;2022-12-16T08:28:53;9.93;;;5.13;;
36715;SDS011;22699;51.034;3.730;2022-12-16T08:31:39;12.15;;;6.25;;
36715;SDS011;22699;51.034;3.730;2022-12-16T08:34:26;7.88;;;5.03;;
36715;SDS011;22699;51.034;3.730;2022-12-16T08:37:14;13.30;;;7.07;;
36715;SDS011;22699;51.034;3.730;2022-12-16T08:40:08;11.02;;;6.35;;
36715;SDS011;22699;51.034;3.730;2022-12-16T08:42:56;16.13;;;7.22;;
36715;SDS011;22699;51.034;3.730;2022-12-16T08:45:43;11.43;;;5.50;;
36715;SDS011;22699;51.034;3.730;2022-12-16T08:48:27;12.43;;;5.90;;
36715;SDS011;22699;51.034;3.730;2022-12-16T08:51:17;11.95;;;4.82;;
36715;SDS011;22699;51.034;3.730;2022-12-16T08:54:08;12.10;;;4.60;;
36715;SDS011;22699;51.034;3.730;2022-12-16T09:02:57;7.95;;;3.45;;
36715;SDS011;22699;51.034;3.730;2022-12-16T09:05:47;9.05;;;3.95;;
36715;SDS011;22699;51.034;3.730;2022-12-16T09:08:33;8.00;;;4.30;;
36715;SDS011;22699;51.034;3.730;2022-12-16T09:11:17;8.60;;;4.53;;
36715;SDS011;22699;51.034;3.730;2022-12-16T09:14:01;10.50;;;5.05;;
36715;SDS011;22699;51.034;3.730;2022-12-16T09:16:46;9.85;;;5.47;;
36715;SDS011;22699;51.034;3.730;2022-12-16T09:19:31;10.93;;;5.80;;
36715;SDS011;22699;51.034;3.730;2022-12-16T09:22:26;9.43;;;5.20;;
36715;SDS011;22699;51.034;3.730;2022-12-16T09:25:12;10.10;;;4.43;;
36715;SDS011;22699;51.034;3.730;2022-12-16T09:27:56;7.38;;;4.00;;
36715;SDS011;22699;51.034;3.730;2022-12-16T09:30:40;7.78;;;3.78;;
36715;SDS011;22699;51.034;3.730;2022-12-16T09:33:26;7.20;;;4.05;;
36715;SDS011;22699;51.034;3.730;2022-12-16T09:39:03;12.18;;;5.22;;
36715;SDS011;22699;51.034;3.730;2022-12-16T09:48:14;9.95;;;5.05;;
36715;SDS011;22699;51.034;3.730;2022-12-16T09:51:07;12.50;;;6.20;;
36715;SDS011;22699;51.034;3.730;2022-12-16T09:53:54;11.90;;;5.90;;
36715;SDS011;22699;51.034;3.730;2022-12-16T09:56:39;8.40;;;5.85;;
36715;SDS011;22699;51.034;3.730;2022-12-16T09:59:30;8.93;;;5.90;;
36715;SDS011;22699;51.034;3.730;2022-12-16T10:02:22;10.95;;;6.25;;
36715;SDS011;22699;51.034;3.730;2022-12-16T10:05:11;14.10;;;6.57;;
36715;SDS011;22699;51.034;3.730;2022-12-16T10:08:08;13.48;;;6.40;;
36715;SDS011;22699;51.034;3.730;2022-12-16T10:11:20;9.35;;;5.80;;
36715;SDS011;22699;51.034;3.730;2022-12-16T10:14:12;9.30;;;6.03;;
36715;SDS011;22699;51.034;3.730;2022-12-16T10:17:11;11.20;;;6.45;;
36715;SDS011;22699;51.034;3.730;2022-12-16T10:20:06;15.20;;;6.38;;
36715;SDS011;22699;51.034;3.730;2022-12-16T10:22:58;16.40;;;7.78;;
36715;SDS011;22699;51.034;3.730;2022-12-16T10:25:55;12.05;;;7.55;;
36715;SDS011;22699;51.034;3.730;2022-12-16T10:28:59;10.27;;;7.18;;
36715;SDS011;22699;51.034;3.730;2022-12-16T10:32:03;15.07;;;8.20;;
36715;SDS011;22699;51.034;3.730;2022-12-16T10:35:00;13.05;;;7.63;;
36715;SDS011;22699;51.034;3.730;2022-12-16T10:37:51;16.33;;;8.45;;
36715;SDS011;22699;51.034;3.730;2022-12-16T10:40:38;10.93;;;8.00;;
36715;SDS011;22699;51.034;3.730;2022-12-16T10:46:15;16.95;;;8.52;;
36715;SDS011;22699;51.034;3.730;2022-12-16T10:49:02;18.30;;;8.68;;
36715;SDS011;22699;51.034;3.730;2022-12-16T10:51:47;15.32;;;8.90;;
36715;SDS011;22699;51.034;3.730;2022-12-16T10:54:34;15.45;;;8.45;;
36715;SDS011;22699;51.034;3.730;2022-12-16T10:57:37;17.75;;;7.80;;
36715;SDS011;22699;51.034;3.730;2022-12-16T11:00:48;11.93;;;6.20;;
36715;SDS011;22699;51.034;3.730;2022-12-16T11:03:40;12.52;;;7.90;;
36715;SDS011;22699;51.034;3.730;2022-12-16T11:06:41;21.90;;;9.38;;
36715;SDS011;22699;51.034;3.730;2022-12-16T11:09:27;18.08;;;8.35;;
36715;SDS011;22699;51.034;3.730;2022-12-16T11:12:29;17.40;;;9.55;;
36715;SDS011;22699;51.034;3.730;2022-12-16T11:15:30;25.90;;;9.18;;
36715;SDS011;22699;51.034;3.730;2022-12-16T11:18:16;20.13;;;9.93;;
36715;SDS011;22699;51.034;3.730;2022-12-16T11:21:18;17.17;;;6.35;;
36715;SDS011;22699;51.034;3.730;2022-12-16T11:24:06;12.68;;;6.18;;
36715;SDS011;22699;51.034;3.730;2022-12-16T11:27:05;12.70;;;5.25;;
36715;SDS011;22699;51.034;3.730;2022-12-16T11:30:23;10.50;;;5.18;;
36715;SDS011;22699;51.034;3.730;2022-12-16T11:33:14;11.85;;;4.38;;
36715;SDS011;22699;51.034;3.730;2022-12-16T11:36:06;7.13;;;4.25;;
36715;SDS011;22699;51.034;3.730;2022-12-16T11:41:49;7.22;;;3.00;;
36715;SDS011;22699;51.034;3.730;2022-12-16T11:44:43;6.75;;;3.92;;
36715;SDS011;22699;51.034;3.730;2022-12-16T11:50:54;7.25;;;3.42;;
36715;SDS011;22699;51.034;3.730;2022-12-16T11:56:42;6.25;;;3.78;;
36715;SDS011;22699;51.034;3.730;2022-12-16T12:02:45;10.23;;;3.35;;
36715;SDS011;22699;51.034;3.730;2022-12-16T12:05:43;7.55;;;3.00;;
36715;SDS011;22699;51.034;3.730;2022-12-16T12:08:47;8.52;;;3.42;;
36715;SDS011;22699;51.034;3.730;2022-12-16T12:11:38;7.70;;;2.60;;
36715;SDS011;22699;51.034;3.730;2022-12-16T12:14:34;7.40;;;3.13;;
36715;SDS011;22699;51.034;3.730;2022-12-16T12:17:56;6.18;;;3.00;;
36715;SDS011;22699;51.034;3.730;2022-12-16T12:21:05;7.95;;;3.10;;
36715;SDS011;22699;51.034;3.730;2022-12-16T12:27:26;7.90;;;2.40;;
36715;SDS011;22699;51.034;3.730;2022-12-16T12:30:04;4.90;;;2.80;;
36715;SDS011;22699;51.034;3.730;2022-12-16T12:36:01;6.13;;;2.17;;
36715;SDS011;22699;51.034;3.730;2022-12-16T12:39:19;4.30;;;2.20;;
36715;SDS011;22699;51.034;3.730;2022-12-16T12:48:47;7.82;;;2.17;;
36715;SDS011;22699;51.034;3.730;2022-12-16T12:57:32;13.95;;;6.35;;
36715;SDS011;22699;51.034;3.730;2022-12-16T13:00:23;9.25;;;5.07;;
36715;SDS011;22699;51.034;3.730;2022-12-16T13:06:15;4.82;;;3.10;;
36715;SDS011;22699;51.034;3.730;2022-12-16T13:09:21;9.68;;;3.45;;
36715;SDS011;22699;51.034;3.730;2022-12-16T13:18:11;8.57;;;2.97;;
36715;SDS011;22699;51.034;3.730;2022-12-16T13:20:56;10.13;;;2.55;;
36715;SDS011;22699;51.034;3.730;2022-12-16T13:23:42;5.07;;;2.38;;
36715;SDS011;22699;51.034;3.730;2022-12-16T13:26:28;6.25;;;3.00;;
36715;SDS011;22699;51.034;3.730;2022-12-16T13:29:27;6.07;;;2.40;;
36715;SDS011;22699;51.034;3.730;2022-12-16T13:32:17;5.85;;;2.55;;
36715;SDS011;22699;51.034;3.730;2022-12-16T13:37:57;4.40;;;2.25;;
36715;SDS011;22699;51.034;3.730;2022-12-16T13:41:01;5.13;;;3.17;;
36715;SDS011;22699;51.034;3.730;2022-12-16T13:43:56;4.00;;;1.98;;
36715;SDS011;22699;51.034;3.730;2022-12-16T13:46:48;4.43;;;2.47;;
36715;SDS011;22699;51.034;3.730;2022-12-16T13:52:42;4.80;;;2.20;;
36715;SDS011;22699;51.034;3.730;2022-12-16T13:58:47;5.78;;;2.15;;
36715;SDS011;22699;51.034;3.730;2022-12-16T14:04:34;4.13;;;2.13;;
36715;SDS011;22699;51.034;3.730;2022-12-16T14:07:31;7.93;;;2.72;;
36715;SDS011;22699;51.034;3.730;2022-12-16T14:10:24;5.50;;;2.42;;
36715;SDS011;22699;51.034;3.730;2022-12-16T14:13:11;3.72;;;2.35;;
36715;SDS011;22699;51.034;3.730;2022-12-16T14:25:45;8.07;;;3.72;;
36715;SDS011;22699;51.034;3.730;2022-12-16T14:28:37;3.55;;;2.35;;
36715;SDS011;22699;51.034;3.730;2022-12-16T14:31:23;7.63;;;2.78;;
36715;SDS011;22699;51.034;3.730;2022-12-16T14:34:20;4.90;;;2.90;;
36715;SDS011;22699;51.034;3.730;2022-12-16T14:37:32;6.68;;;3.05;;
36715;SDS011;22699;51.034;3.730;2022-12-16T14:40:19;10.13;;;3.00;;
36715;SDS011;22699;51.034;3.730;2022-12-16T14:43:12;8.00;;;2.83;;
36715;SDS011;22699;51.034;3.730;2022-12-16T14:45:57;7.90;;;3.40;;
36715;SDS011;22699;51.034;3.730;2022-12-16T14:48:43;3.67;;;2.55;;
36715;SDS011;22699;51.034;3.730;2022-12-16T14:51:44;5.22;;;2.58;;
36715;SDS011;22699;51.034;3.730;2022-12-16T14:54:37;5.38;;;2.50;;
36715;SDS011;22699;51.034;3.730;2022-12-16T14:57:28;4.60;;;2.72;;
36715;SDS011;22699;51.034;3.730;2022-12-16T15:00:20;3.20;;;2.60;;
36715;SDS011;22699;51.034;3.730;2022-12-16T15:06:02;6.28;;;3.22;;
36715;SDS011;22699;51.034;3.730;2022-12-16T15:08:54;8.10;;;3.15;;
36715;SDS011;22699;51.034;3.730;2022-12-16T15:11:46;5.25;;;3.08;;
36715;SDS011;22699;51.034;3.730;2022-12-16T15:14:32;5.53;;;2.85;;
36715;SDS011;22699;51.034;3.730;2022-12-16T15:17:19;9.18;;;3.25;;
36715;SDS011;22699;51.034;3.730;2022-12-16T15:20:06;6.45;;;2.65;;
36715;SDS011;22699;51.034;3.730;2022-12-16T15:23:16;13.52;;;3.80;;
36715;SDS011;22699;51.034;3.730;2022-12-16T15:26:04;7.32;;;3.70;;
36715;SDS011;22699;51.034;3.730;2022-12-16T15:28:52;5.97;;;3.33;;
36715;SDS011;22699;51.034;3.730;2022-12-16T15:31:38;9.48;;;3.70;;
36715;SDS011;22699;51.034;3.730;2022-12-16T15:37:35;5.55;;;3.38;;
36715;SDS011;22699;51.034;3.730;2022-12-16T15:40:26;7.45;;;3.55;;
36715;SDS011;22699;51.034;3.730;2022-12-16T15:43:28;11.13;;;6.43;;
36715;SDS011;22699;51.034;3.730;2022-12-16T15:46:27;19.17;;;8.18;;
36715;SDS011;22699;51.034;3.730;2022-12-16T15:55:52;12.50;;;5.07;;
36715;SDS011;22699;51.034;3.730;2022-12-16T15:58:28;7.68;;;4.57;;
36715;SDS011;22699;51.034;3.730;2022-12-16T16:01:22;8.00;;;3.80;;
36715;SDS011;22699;51.034;3.730;2022-12-16T16:04:25;8.27;;;4.90;;
36715;SDS011;22699;51.034;3.730;2022-12-16T16:07:20;7.68;;;4.72;;
36715;SDS011;22699;51.034;3.730;2022-12-16T16:10:23;7.68;;;4.50;;
36715;SDS011;22699;51.034;3.730;2022-12-16T16:13:08;8.50;;;4.90;;
36715;SDS011;22699;51.034;3.730;2022-12-16T16:15:53;9.70;;;5.15;;
36715;SDS011;22699;51.034;3.730;2022-12-16T16:18:38;10.30;;;5.57;;
36715;SDS011;22699;51.034;3.730;2022-12-16T16:21:24;7.78;;;5.45;;
36715;SDS011;22699;51.034;3.730;2022-12-16T16:24:11;7.95;;;5.35;;
36715;SDS011;22699;51.034;3.730;2022-12-16T16:26:56;12.73;;;6.45;;
36715;SDS011;22699;51.034;3.730;2022-12-16T16:29:44;8.48;;;5.90;;
36715;SDS011;22699;51.034;3.730;2022-12-16T16:32:29;10.40;;;6.45;;
36715;SDS011;22699;51.034;3.730;2022-12-16T16:35:14;7.45;;;5.60;;
36715;SDS011;22699;51.034;3.730;2022-12-16T16:38:02;9.75;;;5.40;;
36715;SDS011;22699;51.034;3.730;2022-12-16T16:40:49;9.73;;;5.65;;
36715;SDS011;22699;51.034;3.730;2022-12-16T16:43:34;7.85;;;5.53;;
36715;SDS011;22699;51.034;3.730;2022-12-16T16:49:17;10.23;;;5.70;;
36715;SDS011;22699;51.034;3.730;2022-12-16T16:52:45;10.23;;;6.45;;
36715;SDS011;22699;51.034;3.730;2022-12-16T16:55:29;13.77;;;8.32;;
36715;SDS011;22699;51.034;3.730;2022-12-16T16:58:27;14.88;;;8.68;;
36715;SDS011;22699;51.034;3.730;2022-12-16T17:01:15;11.27;;;8.57;;
36715;SDS011;22699;51.034;3.730;2022-12-16T17:04:00;11.35;;;7.32;;
36715;SDS011;22699;51.034;3.730;2022-12-16T17:06:45;10.77;;;6.13;;
36715;SDS011;22699;51.034;3.730;2022-12-16T17:09:30;13.23;;;7.70;;
36715;SDS011;22699;51.034;3.730;2022-12-16T17:12:19;12.07;;;7.60;;
36715;SDS011;22699;51.034;3.730;2022-12-16T17:15:18;14.35;;;8.13;;
36715;SDS011;22699;51.034;3.730;2022-12-16T17:18:05;14.77;;;9.25;;
36715;SDS011;22699;51.034;3.730;2022-12-16T17:20:50;14.43;;;9.55;;
36715;SDS011;22699;51.034;3.730;2022-12-16T17:23:36;14.38;;;9.30;;
36715;SDS011;22699;51.034;3.730;2022-12-16T17:26:20;20.75;;;10.07;;
36715;SDS011;22699;51.034;3.730;2022-12-16T17:29:05;15.20;;;10.80;;
36715;SDS011;22699;51.034;3.730;2022-12-16T17:31:57;16.88;;;10.00;;
36715;SDS011;22699;51.034;3.730;2022-12-16T17:34:41;17.65;;;10.88;;
36715;SDS011;22699;51.034;3.730;2022-12-16T17:37:25;22.35;;;12.77;;
36715;SDS011;22699;51.034;3.730;2022-12-16T17:40:10;20.38;;;11.90;;
36715;SDS011;22699;51.034;3.730;2022-12-16T17:42:54;21.65;;;12.30;;
36715;SDS011;22699;51.034;3.730;2022-12-16T17:45:38;20.52;;;11.85;;
36715;SDS011;22699;51.034;3.730;2022-12-16T17:48:22;20.88;;;12.57;;
36715;SDS011;22699;51.034;3.730;2022-12-16T17:51:06;22.70;;;12.90;;
36715;SDS011;22699;51.034;3.730;2022-12-16T17:53:50;18.98;;;10.88;;
36715;SDS011;22699;51.034;3.730;2022-12-16T17:56:35;22.73;;;15.02;;
36715;SDS011;22699;51.034;3.730;2022-12-16T17:59:19;28.77;;;15.98;;
36715;SDS011;22699;51.034;3.730;2022-12-16T18:02:05;60.88;;;34.47;;
36715;SDS011;22699;51.034;3.730;2022-12-16T18:04:51;42.03;;;24.30;;
36715;SDS011;22699;51.034;3.730;2022-12-16T18:07:36;30.85;;;18.55;;
36715;SDS011;22699;51.034;3.730;2022-12-16T18:10:20;30.30;;;18.27;;
36715;SDS011;22699;51.034;3.730;2022-12-16T18:13:04;29.75;;;19.55;;
36715;SDS011;22699;51.034;3.730;2022-12-16T18:15:52;25.25;;;16.83;;
36715;SDS011;22699;51.034;3.730;2022-12-16T18:18:36;23.90;;;15.90;;
36715;SDS011;22699;51.034;3.730;2022-12-16T18:21:21;26.50;;;14.60;;